sensor_id;sensor_type;location;lat;lon;timestamp;pressure;altitude;pressure_sealevel;temperature;humidity
43814;BME280;29669;55.706;37.656;2023-08-08T02:40:57;99084.75;;;23.62;51.32
43814;BME280;29669;55.706;37.656;2023-08-08T06:07:58;99159.13;;;27.42;47.16
43814;BME280;29669;55.706;37.656;2023-08-08T06:10:32;99167.00;;;27.70;46.36
43814;BME280;29669;55.706;37.656;2023-08-08T06:13:06;99167.28;;;27.87;45.90
43814;BME280;29669;55.706;37.656;2023-08-08T06:15:38;99165.59;;;27.91;46.02
43814;BME280;29669;55.706;37.656;2023-08-08T06:18:08;99167.44;;;27.96;46.25
43814;BME280;29669;55.706;37.656;2023-08-08T06:20:39;99159.06;;;28.03;45.92
43814;BME280;29669;55.706;37.656;2023-08-08T06:23:12;99158.78;;;28.04;45.96
43814;BME280;29669;55.706;37.656;2023-08-08T06:25:39;99163.81;;;28.06;45.71
43814;BME280;29669;55.706;37.656;2023-08-08T06:28:07;99159.34;;;28.01;45.40
43814;BME280;29669;55.706;37.656;2023-08-08T06:30:35;99164.41;;;28.03;45.46
43814;BME280;29669;55.706;37.656;2023-08-08T06:33:02;99159.78;;;28.08;45.40
43814;BME280;29669;55.706;37.656;2023-08-08T06:35:30;99164.56;;;28.25;44.98
43814;BME280;29669;55.706;37.656;2023-08-08T06:37:58;99165.66;;;28.24;45.06
43814;BME280;29669;55.706;37.656;2023-08-08T06:40:25;99165.47;;;28.34;44.74
43814;BME280;29669;55.706;37.656;2023-08-08T06:43:22;99170.25;;;28.50;44.63
43814;BME280;29669;55.706;37.656;2023-08-08T06:45:50;99162.72;;;28.71;44.26
43814;BME280;29669;55.706;37.656;2023-08-08T06:48:18;99168.56;;;28.87;43.70
43814;BME280;29669;55.706;37.656;2023-08-08T06:50:45;99166.38;;;28.89;43.43
43814;BME280;29669;55.706;37.656;2023-08-08T06:53:13;99171.13;;;29.05;43.29
43814;BME280;29669;55.706;37.656;2023-08-08T06:55:41;99158.59;;;29.19;43.30
43814;BME280;29669;55.706;37.656;2023-08-08T06:58:09;99162.44;;;29.27;42.93
43814;BME280;29669;55.706;37.656;2023-08-08T07:00:36;99179.09;;;29.24;42.90
43814;BME280;29669;55.706;37.656;2023-08-08T07:03:04;99185.13;;;29.29;42.91
43814;BME280;29669;55.706;37.656;2023-08-08T07:05:32;99173.50;;;29.47;42.54
43814;BME280;29669;55.706;37.656;2023-08-08T07:08:00;99176.75;;;29.58;42.02
43814;BME280;29669;55.706;37.656;2023-08-08T07:10:28;99180.88;;;29.64;41.62
43814;BME280;29669;55.706;37.656;2023-08-08T07:12:55;99182.56;;;29.74;41.74
43814;BME280;29669;55.706;37.656;2023-08-08T07:15:23;99186.13;;;29.83;41.21
43814;BME280;29669;55.706;37.656;2023-08-08T07:17:51;99179.41;;;29.72;40.99
43814;BME280;29669;55.706;37.656;2023-08-08T07:20:19;99175.19;;;29.43;41.35
43814;BME280;29669;55.706;37.656;2023-08-08T07:22:47;99187.50;;;29.17;41.91
43814;BME280;29669;55.706;37.656;2023-08-08T07:25:14;99195.91;;;29.24;42.10
43814;BME280;29669;55.706;37.656;2023-08-08T07:27:42;99193.81;;;29.48;41.74
43814;BME280;29669;55.706;37.656;2023-08-08T07:30:10;99193.19;;;29.51;41.54
43814;BME280;29669;55.706;37.656;2023-08-08T07:32:39;99186.75;;;29.52;41.54
43814;BME280;29669;55.706;37.656;2023-08-08T07:35:07;99187.72;;;29.56;41.46
43814;BME280;29669;55.706;37.656;2023-08-08T07:37:36;99200.59;;;29.54;41.56
43814;BME280;29669;55.706;37.656;2023-08-08T07:40:13;99187.34;;;29.63;41.50
43814;BME280;29669;55.706;37.656;2023-08-08T07:42:41;99188.31;;;29.67;41.07
43814;BME280;29669;55.706;37.656;2023-08-08T07:45:09;99198.53;;;29.65;41.12
43814;BME280;29669;55.706;37.656;2023-08-08T07:47:36;99198.25;;;29.53;41.15
43814;BME280;29669;55.706;37.656;2023-08-08T07:50:05;99202.41;;;29.45;41.39
43814;BME280;29669;55.706;37.656;2023-08-08T07:52:36;99201.50;;;29.63;41.26
43814;BME280;29669;55.706;37.656;2023-08-08T07:55:04;99210.88;;;29.88;41.00
43814;BME280;29669;55.706;37.656;2023-08-08T07:57:32;99200.59;;;30.04;40.88
43814;BME280;29669;55.706;37.656;2023-08-08T08:00:03;99195.50;;;30.16;40.81
43814;BME280;29669;55.706;37.656;2023-08-08T08:02:41;99191.59;;;30.22;40.67
43814;BME280;29669;55.706;37.656;2023-08-08T08:05:11;99200.03;;;30.29;40.64
43814;BME280;29669;55.706;37.656;2023-08-08T08:07:40;99196.94;;;30.35;40.75
43814;BME280;29669;55.706;37.656;2023-08-08T08:10:10;99200.38;;;30.36;40.27
43814;BME280;29669;55.706;37.656;2023-08-08T08:12:41;99200.22;;;30.32;40.31
43814;BME280;29669;55.706;37.656;2023-08-08T08:15:09;99199.00;;;30.38;40.15
43814;BME280;29669;55.706;37.656;2023-08-08T08:17:37;99200.75;;;30.43;40.14
43814;BME280;29669;55.706;37.656;2023-08-08T08:20:05;99202.94;;;30.41;40.17
43814;BME280;29669;55.706;37.656;2023-08-08T08:22:38;99204.63;;;30.15;40.39
43814;BME280;29669;55.706;37.656;2023-08-08T08:25:06;99212.06;;;29.96;40.73
43814;BME280;29669;55.706;37.656;2023-08-08T08:27:37;99227.34;;;29.82;41.06
43814;BME280;29669;55.706;37.656;2023-08-08T08:30:05;99218.44;;;29.59;41.60
43814;BME280;29669;55.706;37.656;2023-08-08T08:32:34;99219.81;;;29.56;41.84
43814;BME280;29669;55.706;37.656;2023-08-08T08:35:03;99223.88;;;29.67;41.70
43814;BME280;29669;55.706;37.656;2023-08-08T08:37:34;99223.59;;;29.83;41.23
43814;BME280;29669;55.706;37.656;2023-08-08T08:40:02;99228.66;;;30.06;41.02
43814;BME280;29669;55.706;37.656;2023-08-08T08:42:34;99220.44;;;30.25;40.81
43814;BME280;29669;55.706;37.656;2023-08-08T08:45:03;99223.72;;;30.35;40.37
43814;BME280;29669;55.706;37.656;2023-08-08T08:47:35;99221.75;;;30.49;40.41
43814;BME280;29669;55.706;37.656;2023-08-08T08:50:04;99218.69;;;30.65;40.03
43814;BME280;29669;55.706;37.656;2023-08-08T08:52:33;99218.59;;;30.78;39.97
43814;BME280;29669;55.706;37.656;2023-08-08T08:55:01;99227.84;;;30.94;39.56
43814;BME280;29669;55.706;37.656;2023-08-08T08:57:32;99225.41;;;31.23;39.21
43814;BME280;29669;55.706;37.656;2023-08-08T09:00:00;99230.91;;;31.49;38.74
43814;BME280;29669;55.706;37.656;2023-08-08T09:02:33;99231.56;;;31.72;38.54
43814;BME280;29669;55.706;37.656;2023-08-08T09:05:03;99230.47;;;31.90;38.27
43814;BME280;29669;55.706;37.656;2023-08-08T09:07:32;99234.13;;;31.94;38.10
43814;BME280;29669;55.706;37.656;2023-08-08T09:10:00;99225.59;;;32.09;38.18
43814;BME280;29669;55.706;37.656;2023-08-08T09:12:31;99228.91;;;32.14;37.53
43814;BME280;29669;55.706;37.656;2023-08-08T09:14:59;99229.41;;;32.08;37.67
43814;BME280;29669;55.706;37.656;2023-08-08T09:17:27;99235.88;;;31.98;37.92
43814;BME280;29669;55.706;37.656;2023-08-08T09:20:15;99228.31;;;32.00;38.00
43814;BME280;29669;55.706;37.656;2023-08-08T09:22:44;99236.66;;;31.99;37.61
43814;BME280;29669;55.706;37.656;2023-08-08T09:25:12;99237.25;;;31.87;37.82
43814;BME280;29669;55.706;37.656;2023-08-08T09:27:41;99240.38;;;31.72;37.97
43814;BME280;29669;55.706;37.656;2023-08-08T09:30:10;99238.50;;;31.64;38.12
43814;BME280;29669;55.706;37.656;2023-08-08T09:32:39;99235.66;;;31.61;38.16
43814;BME280;29669;55.706;37.656;2023-08-08T09:35:07;99235.66;;;31.61;38.24
43814;BME280;29669;55.706;37.656;2023-08-08T09:37:38;99233.28;;;31.68;37.88
43814;BME280;29669;55.706;37.656;2023-08-08T09:40:06;99240.72;;;31.71;38.04
43814;BME280;29669;55.706;37.656;2023-08-08T09:42:35;99232.19;;;31.69;38.24
43814;BME280;29669;55.706;37.656;2023-08-08T09:45:04;99238.53;;;31.90;37.72
43814;BME280;29669;55.706;37.656;2023-08-08T09:47:33;99244.56;;;32.04;37.75
43814;BME280;29669;55.706;37.656;2023-08-08T09:50:02;99241.06;;;32.12;37.63
43814;BME280;29669;55.706;37.656;2023-08-08T09:52:34;99234.91;;;32.28;37.39
43814;BME280;29669;55.706;37.656;2023-08-08T09:55:02;99240.13;;;32.33;37.09
43814;BME280;29669;55.706;37.656;2023-08-08T09:57:32;99237.59;;;32.20;37.46
43814;BME280;29669;55.706;37.656;2023-08-08T10:00:01;99235.38;;;32.22;37.65
43814;BME280;29669;55.706;37.656;2023-08-08T10:02:34;99240.31;;;32.46;37.17
43814;BME280;29669;55.706;37.656;2023-08-08T10:05:05;99237.19;;;32.81;36.65
43814;BME280;29669;55.706;37.656;2023-08-08T10:07:33;99239.81;;;33.07;35.87
43814;BME280;29669;55.706;37.656;2023-08-08T10:10:01;99236.97;;;33.12;35.43
43814;BME280;29669;55.706;37.656;2023-08-08T10:12:31;99244.03;;;33.16;35.24
43814;BME280;29669;55.706;37.656;2023-08-08T10:14:59;99246.50;;;33.30;35.08
43814;BME280;29669;55.706;37.656;2023-08-08T10:17:27;99237.88;;;33.54;34.83
43814;BME280;29669;55.706;37.656;2023-08-08T10:20:03;99237.31;;;33.69;34.34
43814;BME280;29669;55.706;37.656;2023-08-08T10:22:43;99230.66;;;33.87;34.55
43814;BME280;29669;55.706;37.656;2023-08-08T10:25:22;99241.56;;;34.11;34.18
43814;BME280;29669;55.706;37.656;2023-08-08T10:30:57;99250.88;;;34.34;33.85
43814;BME280;29669;55.706;37.656;2023-08-08T10:33:27;99241.47;;;34.40;33.70
43814;BME280;29669;55.706;37.656;2023-08-08T10:35:59;99247.50;;;34.37;33.55
43814;BME280;29669;55.706;37.656;2023-08-08T10:38:39;99254.31;;;34.23;33.87
43814;BME280;29669;55.706;37.656;2023-08-08T10:41:12;99254.19;;;34.19;34.15
43814;BME280;29669;55.706;37.656;2023-08-08T10:43:51;99245.25;;;34.27;34.12
43814;BME280;29669;55.706;37.656;2023-08-08T10:46:28;99254.50;;;34.38;34.15
43814;BME280;29669;55.706;37.656;2023-08-08T10:48:59;99260.13;;;34.45;33.94
43814;BME280;29669;55.706;37.656;2023-08-08T10:51:44;99264.28;;;34.22;34.19
43814;BME280;29669;55.706;37.656;2023-08-08T10:54:17;99266.16;;;34.09;34.30
43814;BME280;29669;55.706;37.656;2023-08-08T10:56:54;99268.38;;;33.87;34.43
43814;BME280;29669;55.706;37.656;2023-08-08T10:59:25;99275.97;;;33.64;34.98
43814;BME280;29669;55.706;37.656;2023-08-08T11:01:53;99274.94;;;33.40;35.23
43814;BME280;29669;55.706;37.656;2023-08-08T11:04:24;99275.22;;;33.17;35.55
43814;BME280;29669;55.706;37.656;2023-08-08T11:06:56;99274.19;;;32.93;35.89
43814;BME280;29669;55.706;37.656;2023-08-08T11:09:24;99276.72;;;32.81;36.15
43814;BME280;29669;55.706;37.656;2023-08-08T11:11:52;99268.72;;;32.64;36.42
43814;BME280;29669;55.706;37.656;2023-08-08T11:14:21;99269.69;;;32.51;36.46
43814;BME280;29669;55.706;37.656;2023-08-08T11:16:50;99272.06;;;32.44;36.66
43814;BME280;29669;55.706;37.656;2023-08-08T11:19:19;99269.81;;;32.37;36.64
43814;BME280;29669;55.706;37.656;2023-08-08T11:21:48;99270.78;;;32.24;37.06
43814;BME280;29669;55.706;37.656;2023-08-08T11:24:16;99279.16;;;32.14;36.88
43814;BME280;29669;55.706;37.656;2023-08-08T11:26:44;99284.38;;;32.02;37.34
43814;BME280;29669;55.706;37.656;2023-08-08T11:29:15;99283.97;;;31.78;37.61
43814;BME280;29669;55.706;37.656;2023-08-08T11:31:42;99285.19;;;31.55;37.96
43814;BME280;29669;55.706;37.656;2023-08-08T11:34:10;99286.22;;;31.36;38.32
43814;BME280;29669;55.706;37.656;2023-08-08T11:36:39;99281.25;;;31.21;38.61
43814;BME280;29669;55.706;37.656;2023-08-08T11:39:07;99291.31;;;31.07;38.73
43814;BME280;29669;55.706;37.656;2023-08-08T11:41:37;99300.34;;;30.89;39.38
43814;BME280;29669;55.706;37.656;2023-08-08T11:44:06;99294.06;;;30.72;39.57
43814;BME280;29669;55.706;37.656;2023-08-08T11:46:45;99295.53;;;30.55;39.76
43814;BME280;29669;55.706;37.656;2023-08-08T11:49:16;99290.41;;;30.45;40.17
43814;BME280;29669;55.706;37.656;2023-08-08T11:51:44;99303.03;;;30.45;40.33
43814;BME280;29669;55.706;37.656;2023-08-08T11:54:13;99295.59;;;30.42;40.31
43814;BME280;29669;55.706;37.656;2023-08-08T11:56:43;99299.91;;;30.51;40.29
43814;BME280;29669;55.706;37.656;2023-08-08T11:59:11;99300.81;;;30.69;39.95
43814;BME280;29669;55.706;37.656;2023-08-08T12:01:41;99289.03;;;30.92;39.96
43814;BME280;29669;55.706;37.656;2023-08-08T12:04:10;99286.63;;;31.21;39.49
43814;BME280;29669;55.706;37.656;2023-08-08T12:06:38;99282.53;;;31.63;39.12
43814;BME280;29669;55.706;37.656;2023-08-08T12:09:14;99287.53;;;32.04;38.45
43814;BME280;29669;55.706;37.656;2023-08-08T12:11:42;99275.03;;;32.42;37.61
43814;BME280;29669;55.706;37.656;2023-08-08T12:14:12;99274.06;;;32.72;37.04
43814;BME280;29669;55.706;37.656;2023-08-08T12:16:42;99258.69;;;32.98;36.89
43814;BME280;29669;55.706;37.656;2023-08-08T12:19:11;99273.53;;;33.04;36.67
43814;BME280;29669;55.706;37.656;2023-08-08T12:21:40;99269.88;;;33.09;36.54
43814;BME280;29669;55.706;37.656;2023-08-08T12:24:07;99276.25;;;33.34;36.22
43814;BME280;29669;55.706;37.656;2023-08-08T12:26:35;99274.75;;;33.53;35.91
43814;BME280;29669;55.706;37.656;2023-08-08T12:29:03;99275.41;;;33.42;35.94
43814;BME280;29669;55.706;37.656;2023-08-08T12:31:31;99279.16;;;33.20;35.85
43814;BME280;29669;55.706;37.656;2023-08-08T12:33:58;99285.31;;;33.29;35.94
43814;BME280;29669;55.706;37.656;2023-08-08T12:36:26;99284.72;;;33.53;35.60
43814;BME280;29669;55.706;37.656;2023-08-08T12:38:54;99287.78;;;33.72;35.34
43814;BME280;29669;55.706;37.656;2023-08-08T12:41:23;99284.19;;;33.88;35.05
43814;BME280;29669;55.706;37.656;2023-08-08T12:43:52;99286.63;;;34.43;34.43
43814;BME280;29669;55.706;37.656;2023-08-08T12:46:20;99287.09;;;35.23;33.09
43814;BME280;29669;55.706;37.656;2023-08-08T12:48:47;99281.06;;;36.69;31.30
43814;BME280;29669;55.706;37.656;2023-08-08T12:51:17;99284.34;;;38.41;28.90
43814;BME280;29669;55.706;37.656;2023-08-08T12:53:46;99278.38;;;39.41;27.55
43814;BME280;29669;55.706;37.656;2023-08-08T12:56:14;99278.94;;;40.06;26.51
43814;BME280;29669;55.706;37.656;2023-08-08T12:58:41;99275.69;;;40.64;25.65
43814;BME280;29669;55.706;37.656;2023-08-08T13:01:09;99271.09;;;41.11;24.98
43814;BME280;29669;55.706;37.656;2023-08-08T13:03:36;99270.59;;;41.46;24.45
43814;BME280;29669;55.706;37.656;2023-08-08T13:06:05;99273.13;;;41.72;23.79
43814;BME280;29669;55.706;37.656;2023-08-08T13:08:32;99260.84;;;42.10;23.60
43814;BME280;29669;55.706;37.656;2023-08-08T13:11:00;99263.72;;;42.49;23.30
43814;BME280;29669;55.706;37.656;2023-08-08T13:13:28;99267.16;;;42.32;23.34
43814;BME280;29669;55.706;37.656;2023-08-08T13:15:55;99266.44;;;41.63;23.58
43814;BME280;29669;55.706;37.656;2023-08-08T13:18:23;99267.34;;;40.83;24.71
43814;BME280;29669;55.706;37.656;2023-08-08T13:20:51;99268.13;;;41.27;24.35
43814;BME280;29669;55.706;37.656;2023-08-08T13:23:19;99257.97;;;41.82;23.69
43814;BME280;29669;55.706;37.656;2023-08-08T13:25:46;99257.81;;;41.54;23.62
43814;BME280;29669;55.706;37.656;2023-08-08T13:28:15;99268.47;;;41.80;23.28
43814;BME280;29669;55.706;37.656;2023-08-08T13:30:43;99263.13;;;41.36;23.58
43814;BME280;29669;55.706;37.656;2023-08-08T13:33:10;99262.13;;;40.30;24.73
43814;BME280;29669;55.706;37.656;2023-08-08T13:35:38;99265.59;;;39.68;25.55
43814;BME280;29669;55.706;37.656;2023-08-08T13:38:05;99268.91;;;40.10;25.49
43814;BME280;29669;55.706;37.656;2023-08-08T13:40:34;99251.78;;;41.27;24.33
43814;BME280;29669;55.706;37.656;2023-08-08T13:43:02;99246.94;;;42.50;22.84
43814;BME280;29669;55.706;37.656;2023-08-08T13:45:30;99262.56;;;42.67;22.38
43814;BME280;29669;55.706;37.656;2023-08-08T13:47:57;99258.19;;;42.28;22.56
43814;BME280;29669;55.706;37.656;2023-08-08T13:50:25;99249.59;;;42.15;22.72
43814;BME280;29669;55.706;37.656;2023-08-08T13:52:54;99255.19;;;42.82;22.50
43814;BME280;29669;55.706;37.656;2023-08-08T13:55:21;99252.00;;;43.54;21.39
43814;BME280;29669;55.706;37.656;2023-08-08T13:57:49;99250.91;;;43.23;21.96
43814;BME280;29669;55.706;37.656;2023-08-08T14:00:17;99251.28;;;42.90;21.96
43814;BME280;29669;55.706;37.656;2023-08-08T14:02:44;99248.25;;;41.84;22.87
43814;BME280;29669;55.706;37.656;2023-08-08T14:05:12;99246.75;;;41.29;24.06
43814;BME280;29669;55.706;37.656;2023-08-08T14:07:42;99256.34;;;40.72;24.14
43814;BME280;29669;55.706;37.656;2023-08-08T14:10:10;99250.00;;;39.91;25.11
43814;BME280;29669;55.706;37.656;2023-08-08T14:12:37;99250.00;;;39.13;26.16
43814;BME280;29669;55.706;37.656;2023-08-08T14:15:06;99250.19;;;38.36;27.17
43814;BME280;29669;55.706;37.656;2023-08-08T14:17:33;99255.94;;;37.62;28.11
43814;BME280;29669;55.706;37.656;2023-08-08T14:20:02;99259.00;;;36.67;29.32
43814;BME280;29669;55.706;37.656;2023-08-08T14:22:30;99261.31;;;35.85;30.30
43814;BME280;29669;55.706;37.656;2023-08-08T14:24:57;99259.44;;;35.26;30.95
43814;BME280;29669;55.706;37.656;2023-08-08T14:27:25;99259.03;;;34.91;31.29
43814;BME280;29669;55.706;37.656;2023-08-08T14:29:52;99254.63;;;34.74;31.82
43814;BME280;29669;55.706;37.656;2023-08-08T14:32:20;99250.91;;;34.67;31.85
43814;BME280;29669;55.706;37.656;2023-08-08T14:34:48;99259.06;;;34.46;32.07
43814;BME280;29669;55.706;37.656;2023-08-08T14:37:15;99255.44;;;34.22;32.73
43814;BME280;29669;55.706;37.656;2023-08-08T14:39:43;99264.41;;;33.84;33.24
43814;BME280;29669;55.706;37.656;2023-08-08T14:42:10;99253.38;;;33.57;33.82
43814;BME280;29669;55.706;37.656;2023-08-08T14:47:05;99260.63;;;33.27;nan
43814;BME280;29669;55.706;37.656;2023-08-08T14:52:01;99255.00;;;33.11;nan
43814;BME280;29669;55.706;37.656;2023-08-08T14:54:29;99260.09;;;33.04;nan
43814;BME280;29669;55.706;37.656;2023-08-08T14:56:56;99262.78;;;33.04;nan
43814;BME280;29669;55.706;37.656;2023-08-08T15:04:20;99264.28;;;32.59;nan
43814;BME280;29669;55.706;37.656;2023-08-08T15:11:42;99263.91;;;31.67;nan
43814;BME280;29669;55.706;37.656;2023-08-08T15:14:10;99263.06;;;31.40;nan
43814;BME280;29669;55.706;37.656;2023-08-08T15:16:40;99262.16;;;31.14;nan
43814;BME280;29669;55.706;37.656;2023-08-08T15:19:10;99271.34;;;30.91;nan
43814;BME280;29669;55.706;37.656;2023-08-08T15:21:38;99264.13;;;30.70;nan
43814;BME280;29669;55.706;37.656;2023-08-08T15:24:06;99266.69;;;30.52;nan
43814;BME280;29669;55.706;37.656;2023-08-08T15:26:34;99266.84;;;30.34;nan
43814;BME280;29669;55.706;37.656;2023-08-08T15:29:01;99276.38;;;30.26;nan
43814;BME280;29669;55.706;37.656;2023-08-08T15:31:29;99288.41;;;30.29;nan
43814;BME280;29669;55.706;37.656;2023-08-08T15:33:57;99295.19;;;29.99;nan
43814;BME280;29669;55.706;37.656;2023-08-08T15:36:25;99289.28;;;29.48;nan
43814;BME280;29669;55.706;37.656;2023-08-08T15:38:53;99302.31;;;29.09;nan
43814;BME280;29669;55.706;37.656;2023-08-08T15:41:23;99291.25;;;28.83;nan
43814;BME280;29669;55.706;37.656;2023-08-08T15:43:51;99294.47;;;28.66;nan
43814;BME280;29669;55.706;37.656;2023-08-08T15:46:19;99310.34;;;28.58;nan
43814;BME280;29669;55.706;37.656;2023-08-08T15:48:47;99307.63;;;28.44;nan
43814;BME280;29669;55.706;37.656;2023-08-08T15:51:18;99307.47;;;28.36;nan
43814;BME280;29669;55.706;37.656;2023-08-08T15:53:46;99302.72;;;28.33;nan
43814;BME280;29669;55.706;37.656;2023-08-08T15:56:13;99313.53;;;28.23;nan
43814;BME280;29669;55.706;37.656;2023-08-08T15:58:41;99312.81;;;28.17;nan
43814;BME280;29669;55.706;37.656;2023-08-08T16:01:09;99324.03;;;27.96;nan
43814;BME280;29669;55.706;37.656;2023-08-08T16:03:37;99322.34;;;27.81;nan
43814;BME280;29669;55.706;37.656;2023-08-08T16:06:05;99339.84;;;27.68;nan
43814;BME280;29669;55.706;37.656;2023-08-08T16:08:32;99341.06;;;27.52;nan
43814;BME280;29669;55.706;37.656;2023-08-08T16:11:00;99347.06;;;27.39;nan
43814;BME280;29669;55.706;37.656;2023-08-08T16:13:28;99341.81;;;27.29;nan
43814;BME280;29669;55.706;37.656;2023-08-08T16:15:55;99335.88;;;27.09;nan
43814;BME280;29669;55.706;37.656;2023-08-08T16:18:23;99337.66;;;26.89;nan
43814;BME280;29669;55.706;37.656;2023-08-08T16:20:50;99352.44;;;26.72;nan
43814;BME280;29669;55.706;37.656;2023-08-08T16:23:18;99358.84;;;26.66;nan
43814;BME280;29669;55.706;37.656;2023-08-08T16:25:45;99345.59;;;26.61;nan
43814;BME280;29669;55.706;37.656;2023-08-08T16:28:13;99355.72;;;26.54;nan
43814;BME280;29669;55.706;37.656;2023-08-08T16:30:41;99358.38;;;26.54;nan
43814;BME280;29669;55.706;37.656;2023-08-08T16:33:09;99377.88;;;26.49;nan
43814;BME280;29669;55.706;37.656;2023-08-08T16:35:43;99365.94;;;26.42;nan
43814;BME280;29669;55.706;37.656;2023-08-08T16:38:11;99364.03;;;26.42;nan
43814;BME280;29669;55.706;37.656;2023-08-08T16:40:39;99372.59;;;26.39;nan
43814;BME280;29669;55.706;37.656;2023-08-08T16:43:07;99375.59;;;26.28;nan
43814;BME280;29669;55.706;37.656;2023-08-08T16:45:34;99375.38;;;26.19;nan
43814;BME280;29669;55.706;37.656;2023-08-08T16:48:02;99378.03;;;26.14;nan
43814;BME280;29669;55.706;37.656;2023-08-08T16:50:30;99387.91;;;26.03;nan
43814;BME280;29669;55.706;37.656;2023-08-08T16:52:58;99379.16;;;25.93;nan
43814;BME280;29669;55.706;37.656;2023-08-08T16:55:25;99384.25;;;25.84;nan
43814;BME280;29669;55.706;37.656;2023-08-08T16:57:53;99391.72;;;25.77;nan
43814;BME280;29669;55.706;37.656;2023-08-08T17:00:21;99388.81;;;25.69;nan
43814;BME280;29669;55.706;37.656;2023-08-08T17:02:48;99401.84;;;25.65;nan
43814;BME280;29669;55.706;37.656;2023-08-08T17:05:16;99398.16;;;25.56;nan
43814;BME280;29669;55.706;37.656;2023-08-08T17:07:44;99415.44;;;25.54;nan
43814;BME280;29669;55.706;37.656;2023-08-08T17:10:12;99417.31;;;25.48;nan
43814;BME280;29669;55.706;37.656;2023-08-08T17:12:39;99408.28;;;25.39;nan
43814;BME280;29669;55.706;37.656;2023-08-08T17:15:07;99415.41;;;25.29;nan
43814;BME280;29669;55.706;37.656;2023-08-08T17:17:35;99422.88;;;25.22;nan
43814;BME280;29669;55.706;37.656;2023-08-08T17:20:03;99423.41;;;25.18;nan
43814;BME280;29669;55.706;37.656;2023-08-08T17:22:35;99426.56;;;25.15;nan
43814;BME280;29669;55.706;37.656;2023-08-08T17:25:03;99425.78;;;25.10;nan
43814;BME280;29669;55.706;37.656;2023-08-08T17:27:31;99440.41;;;25.07;nan
43814;BME280;29669;55.706;37.656;2023-08-08T17:30:03;99434.81;;;24.99;nan
43814;BME280;29669;55.706;37.656;2023-08-08T17:32:36;99428.97;;;24.92;nan
43814;BME280;29669;55.706;37.656;2023-08-08T17:35:33;99435.31;;;24.86;nan
43814;BME280;29669;55.706;37.656;2023-08-08T17:38:34;99430.53;;;24.73;nan
43814;BME280;29669;55.706;37.656;2023-08-08T17:41:33;99439.50;;;24.67;nan
43814;BME280;29669;55.706;37.656;2023-08-08T17:44:51;99457.81;;;24.63;nan
43814;BME280;29669;55.706;37.656;2023-08-08T17:47:53;99449.03;;;24.63;nan
43814;BME280;29669;55.706;37.656;2023-08-08T17:50:46;99443.19;;;24.61;nan
43814;BME280;29669;55.706;37.656;2023-08-08T17:53:23;99460.72;;;24.62;nan
43814;BME280;29669;55.706;37.656;2023-08-08T17:56:03;99457.50;;;24.55;nan
43814;BME280;29669;55.706;37.656;2023-08-08T17:58:43;99460.41;;;24.48;nan
43814;BME280;29669;55.706;37.656;2023-08-08T18:01:17;99460.91;;;24.40;nan
43814;BME280;29669;55.706;37.656;2023-08-08T18:03:55;99460.38;;;24.33;nan
43814;BME280;29669;55.706;37.656;2023-08-08T18:06:34;99467.25;;;24.29;nan
43814;BME280;29669;55.706;37.656;2023-08-08T18:09:04;99470.66;;;24.24;nan
43814;BME280;29669;55.706;37.656;2023-08-08T18:11:42;99465.59;;;24.18;nan
43814;BME280;29669;55.706;37.656;2023-08-08T18:14:12;99466.91;;;24.15;nan
43814;BME280;29669;55.706;37.656;2023-08-08T18:16:45;99465.28;;;24.09;nan
43814;BME280;29669;55.706;37.656;2023-08-08T18:19:23;99477.75;;;24.09;nan
43814;BME280;29669;55.706;37.656;2023-08-08T18:21:51;99472.41;;;24.04;nan
43814;BME280;29669;55.706;37.656;2023-08-08T18:24:35;99468.19;;;24.03;nan
43814;BME280;29669;55.706;37.656;2023-08-08T18:27:21;99481.19;;;24.04;nan
43814;BME280;29669;55.706;37.656;2023-08-08T18:30:05;99476.84;;;23.98;nan
43814;BME280;29669;55.706;37.656;2023-08-08T18:33:25;99469.97;;;23.97;nan
43814;BME280;29669;55.706;37.656;2023-08-08T18:36:31;99475.00;;;23.99;nan
43814;BME280;29669;55.706;37.656;2023-08-08T20:41:25;99463.59;;;23.57;nan
43814;BME280;29669;55.706;37.656;2023-08-08T21:04:59;99464.75;;;23.34;51.46
